Time;durP1;ratioP1;P1;durP2;ratioP2;P2;SDS_P1;SDS_P2;PMS_P1;PMS_P2;Temp;Humidity;BMP_temperature;BMP_pressure;BME280_temperature;BME280_humidity;BME280_pressure;Samples;Min_cycle;Max_cycle;Signal;HPM_P1;HPM_P2
2023/02/20 00:01:15;;;;;;;15.38;8.75;;;5.50;99.90;;;;;;5063840;28;20060;-47
2023/02/20 00:03:41;;;;;;;14.05;8.98;;;5.60;99.90;;;;;;5063823;28;20033;-47
2023/02/20 00:06:07;;;;;;;17.98;9.68;;;5.60;99.90;;;;;;5049050;28;20079;-48
2023/02/20 00:08:32;;;;;;;14.68;8.40;;;5.60;99.90;;;;;;5048836;28;20062;-47
2023/02/20 00:10:58;;;;;;;16.13;9.30;;;5.70;99.90;;;;;;5048666;28;20088;-48
2023/02/20 00:13:23;;;;;;;17.00;8.75;;;5.60;99.90;;;;;;5048424;28;20160;-48
2023/02/20 00:15:49;;;;;;;14.45;8.02;;;5.60;99.90;;;;;;5047386;28;20029;-48
2023/02/20 00:18:14;;;;;;;15.30;7.90;;;5.60;99.90;;;;;;5048326;28;20035;-48
2023/02/20 00:20:40;;;;;;;16.25;9.38;;;5.70;99.90;;;;;;5048490;28;20043;-50
2023/02/20 00:23:05;;;;;;;15.65;9.30;;;5.70;99.90;;;;;;5048632;28;20031;-48
2023/02/20 00:25:31;;;;;;;15.77;9.18;;;5.80;99.90;;;;;;5048449;28;20025;-48
2023/02/20 00:27:56;;;;;;;18.13;9.82;;;5.80;99.90;;;;;;5048620;28;20036;-48
2023/02/20 00:30:23;;;;;;;19.02;9.82;;;5.80;99.90;;;;;;5048742;28;20021;-48
2023/02/20 00:32:50;;;;;;;17.33;9.77;;;5.80;99.90;;;;;;5048226;28;20083;-47
2023/02/20 00:35:17;;;;;;;19.85;10.00;;;5.80;99.90;;;;;;5048848;28;20025;-47
2023/02/20 00:37:43;;;;;;;17.27;10.40;;;5.80;99.90;;;;;;5050152;28;20430;-47
2023/02/20 00:40:10;;;;;;;14.45;8.88;;;5.80;99.90;;;;;;5052544;28;20017;-50
2023/02/20 00:42:35;;;;;;;18.38;9.15;;;5.90;99.90;;;;;;5052372;28;20020;-49
2023/02/20 00:45:01;;;;;;;18.20;10.63;;;6.00;99.90;;;;;;5068141;28;20032;-48
2023/02/20 00:47:26;;;;;;;17.42;9.75;;;5.90;99.90;;;;;;5052485;28;20033;-49
2023/02/20 00:49:52;;;;;;;15.73;9.57;;;5.90;99.90;;;;;;5052845;28;20395;-48
2023/02/20 00:52:17;;;;;;;16.83;10.38;;;6.00;99.90;;;;;;5052199;28;20021;-48
2023/02/20 00:54:43;;;;;;;19.70;10.75;;;6.00;99.90;;;;;;5052721;28;20212;-48
2023/02/20 00:57:08;;;;;;;18.42;10.50;;;6.00;99.90;;;;;;5052660;28;20025;-48
2023/02/20 00:59:34;;;;;;;32.45;13.15;;;6.00;99.90;;;;;;5052541;28;20412;-48
2023/02/20 01:01:59;;;;;;;18.05;11.07;;;6.00;99.90;;;;;;5051747;28;20079;-51
2023/02/20 01:04:25;;;;;;;18.23;10.65;;;6.10;99.90;;;;;;5052369;28;20543;-49
2023/02/20 01:06:50;;;;;;;17.70;10.10;;;6.10;99.90;;;;;;5067362;28;20063;-48
2023/02/20 01:09:16;;;;;;;20.00;11.48;;;6.00;99.90;;;;;;5051825;28;20033;-48
2023/02/20 01:11:44;;;;;;;19.10;11.55;;;6.00;99.90;;;;;;5051489;28;20493;-51
2023/02/20 01:14:10;;;;;;;19.85;12.00;;;6.10;99.90;;;;;;5052153;28;20436;-50
2023/02/20 01:16:36;;;;;;;21.83;11.55;;;6.00;99.90;;;;;;5051759;28;20039;-48
2023/02/20 01:19:02;;;;;;;16.25;10.38;;;6.10;99.90;;;;;;5051838;28;20025;-47
2023/02/20 01:21:27;;;;;;;17.85;10.65;;;6.10;99.90;;;;;;5050860;28;20503;-48
2023/02/20 01:23:53;;;;;;;18.23;11.75;;;6.10;99.90;;;;;;5051383;28;20068;-49
2023/02/20 01:26:19;;;;;;;16.83;10.43;;;6.10;99.90;;;;;;5051832;28;20055;-49
2023/02/20 01:28:47;;;;;;;16.15;10.00;;;6.20;99.90;;;;;;5051943;28;20406;-49
2023/02/20 01:31:13;;;;;;;15.68;9.80;;;6.10;99.90;;;;;;5051847;28;20087;-48
2023/02/20 01:33:43;;;;;;;15.80;9.02;;;6.20;99.90;;;;;;5051603;28;20017;-48
2023/02/20 01:36:09;;;;;;;16.10;10.00;;;6.20;99.90;;;;;;5051458;28;20128;-48
2023/02/20 01:38:35;;;;;;;18.48;10.98;;;6.20;99.90;;;;;;5051553;28;20029;-47
2023/02/20 01:41:01;;;;;;;17.00;10.45;;;6.20;99.90;;;;;;5051522;28;20052;-47
2023/02/20 01:43:26;;;;;;;17.38;9.93;;;6.20;99.90;;;;;;5051307;28;20083;-47
2023/02/20 01:45:52;;;;;;;15.18;9.32;;;6.20;99.90;;;;;;5075564;28;20082;-48
2023/02/20 01:48:24;;;;;;;18.25;10.30;;;6.30;99.90;;;;;;5070862;28;20033;-51
2023/02/20 01:50:57;;;;;;;17.58;10.00;;;6.20;99.90;;;;;;5071329;28;20426;-48
2023/02/20 01:53:27;;;;;;;15.77;9.35;;;6.30;99.90;;;;;;5071311;28;20103;-48
2023/02/20 01:55:58;;;;;;;15.68;9.80;;;6.30;99.90;;;;;;5071460;28;20019;-47
2023/02/20 01:58:29;;;;;;;20.38;9.45;;;6.30;99.90;;;;;;5071200;28;20684;-48
2023/02/20 02:00:57;;;;;;;15.02;9.20;;;6.30;99.90;;;;;;5071184;28;20487;-50
2023/02/20 02:03:26;;;;;;;15.63;9.70;;;6.30;99.90;;;;;;5069296;28;20387;-50
2023/02/20 02:05:57;;;;;;;13.82;9.43;;;6.30;99.90;;;;;;5069612;28;20033;-49
2023/02/20 02:08:24;;;;;;;17.00;9.98;;;6.30;99.90;;;;;;5052467;28;20021;-47
2023/02/20 02:10:58;;;;;;;14.82;9.73;;;6.30;99.90;;;;;;5050959;28;20025;-48
2023/02/20 02:13:24;;;;;;;14.98;9.32;;;6.30;99.90;;;;;;5066054;28;20096;-49
2023/02/20 02:16:18;;;;;;;15.43;9.20;;;6.30;99.90;;;;;;5050860;28;20120;-49
2023/02/20 02:18:49;;;;;;;15.90;9.48;;;6.40;99.90;;;;;;5019145;28;20404;-51
2023/02/20 02:21:27;;;;;;;14.18;8.77;;;6.30;99.90;;;;;;5050898;28;20091;-48
2023/02/20 02:24:10;;;;;;;15.77;8.77;;;6.30;99.90;;;;;;5050813;28;20373;-50
2023/02/20 02:26:56;;;;;;;16.13;9.07;;;6.30;99.90;;;;;;5051058;28;20025;-48
2023/02/20 02:30:03;;;;;;;14.52;9.15;;;6.30;99.90;;;;;;5055884;28;20036;-51
2023/02/20 02:32:47;;;;;;;15.13;8.43;;;6.30;99.90;;;;;;5061611;28;20028;-50
2023/02/20 02:35:26;;;;;;;13.05;9.27;;;6.20;99.90;;;;;;5070581;28;20036;-48
2023/02/20 02:38:15;;;;;;;13.93;8.15;;;6.20;99.90;;;;;;5056514;28;20021;-49
2023/02/20 02:40:40;;;;;;;15.00;8.00;;;6.20;99.90;;;;;;5041179;28;20111;-50
2023/02/20 02:43:22;;;;;;;13.77;8.57;;;6.20;99.90;;;;;;5050068;28;20059;-48
2023/02/20 02:45:54;;;;;;;11.43;8.27;;;6.30;99.90;;;;;;5065939;28;20037;-48
2023/02/20 02:48:33;;;;;;;11.73;8.07;;;6.30;99.90;;;;;;5050297;28;20025;-48
2023/02/20 02:51:08;;;;;;;12.45;7.82;;;6.30;99.90;;;;;;5050212;28;20112;-49
2023/02/20 02:53:34;;;;;;;15.05;8.73;;;6.30;99.90;;;;;;5065349;28;20064;-48
2023/02/20 02:56:20;;;;;;;13.82;8.32;;;6.30;99.90;;;;;;5050088;28;20445;-48
2023/02/20 02:58:46;;;;;;;12.07;7.70;;;6.30;99.90;;;;;;5050187;28;20029;-48
2023/02/20 03:01:12;;;;;;;13.85;8.52;;;6.30;99.90;;;;;;5049434;28;20053;-49
2023/02/20 03:03:42;;;;;;;12.70;7.78;;;6.30;99.90;;;;;;5049331;28;20111;-50
2023/02/20 03:06:33;;;;;;;11.63;7.68;;;6.40;99.90;;;;;;5049875;28;20467;-49
2023/02/20 03:09:14;;;;;;;14.10;9.00;;;6.40;99.90;;;;;;5046706;28;20049;-48
2023/02/20 03:11:39;;;;;;;;;;;6.30;99.90;;;;;;5049870;28;20403;-48
2023/02/20 03:17:30;;;;;;;11.98;7.82;;;6.30;99.90;;;;;;5050088;28;20056;-49
2023/02/20 03:20:06;;;;;;;11.35;7.55;;;6.30;99.90;;;;;;5049606;28;20463;-52
2023/02/20 03:22:37;;;;;;;12.43;7.72;;;6.30;99.90;;;;;;5049098;28;20025;-48
2023/02/20 03:25:09;;;;;;;11.85;7.88;;;6.40;99.90;;;;;;5049797;28;20419;-52
2023/02/20 03:27:50;;;;;;;11.57;7.85;;;6.40;99.90;;;;;;5049497;28;20116;-50
2023/02/20 03:30:26;;;;;;;14.05;7.90;;;6.40;99.90;;;;;;5049710;28;20040;-51
2023/02/20 03:44:53;;;;;;;13.13;8.68;;;6.50;99.90;;;;;;5049706;28;20541;-48
2023/02/20 03:47:21;;;;;;;13.48;9.45;;;6.50;99.90;;;;;;5049392;28;20408;-48
2023/02/20 03:49:48;;;;;;;16.58;9.75;;;6.60;99.90;;;;;;5049038;28;20075;-41
2023/02/20 03:52:14;;;;;;;14.13;9.63;;;6.60;99.90;;;;;;5048512;28;20029;-42
2023/02/20 03:54:41;;;;;;;14.85;9.88;;;6.50;99.90;;;;;;5049050;28;20028;-42
2023/02/20 03:57:13;;;;;;;14.27;10.13;;;6.50;99.90;;;;;;5049228;28;20067;-41
2023/02/20 03:59:53;;;;;;;13.32;9.07;;;6.50;99.90;;;;;;5048972;28;20028;-42
2023/02/20 04:02:27;;;;;;;15.48;9.95;;;6.50;99.90;;;;;;5048086;28;20032;-42
2023/02/20 04:04:58;;;;;;;17.90;10.50;;;6.50;99.90;;;;;;5048325;28;20051;-42
2023/02/20 04:07:29;;;;;;;17.73;11.50;;;6.50;99.90;;;;;;5047700;28;20025;-42
2023/02/20 04:10:01;;;;;;;14.50;9.38;;;6.60;99.90;;;;;;5048894;28;20116;-42
2023/02/20 04:12:31;;;;;;;15.82;10.98;;;6.60;99.90;;;;;;5047984;28;20047;-42
2023/02/20 04:14:58;;;;;;;18.80;11.43;;;6.60;99.90;;;;;;5048850;28;20495;-42
2023/02/20 04:17:31;;;;;;;16.65;11.15;;;6.60;99.90;;;;;;5048820;28;20265;-42
2023/02/20 04:19:56;;;;;;;20.58;12.45;;;6.60;99.90;;;;;;5063771;28;20039;-48
2023/02/20 04:22:27;;;;;;;18.70;12.32;;;6.60;99.90;;;;;;5048098;28;20100;-48
2023/02/20 04:25:00;;;;;;;17.70;12.20;;;6.60;99.90;;;;;;5046905;28;20041;-53
2023/02/20 04:27:26;;;;;;;21.42;12.93;;;6.70;99.90;;;;;;5049103;28;20071;-47
2023/02/20 04:29:52;;;;;;;20.17;12.30;;;6.70;99.90;;;;;;5047275;28;20040;-48
2023/02/20 04:32:18;;;;;;;22.70;14.10;;;6.70;99.90;;;;;;5062725;28;20071;-48
2023/02/20 04:34:43;;;;;;;20.80;13.77;;;6.60;99.90;;;;;;5047099;28;20017;-49
2023/02/20 04:37:10;;;;;;;23.23;15.38;;;6.60;99.90;;;;;;5048010;28;20028;-48
2023/02/20 04:39:36;;;;;;;20.30;14.20;;;6.70;99.90;;;;;;5048301;28;20378;-48
2023/02/20 04:42:02;;;;;;;24.75;15.98;;;6.70;99.90;;;;;;5048011;28;20108;-49
2023/02/20 04:44:30;;;;;;;22.52;14.98;;;6.80;99.90;;;;;;5047558;28;20155;-48
2023/02/20 04:46:57;;;;;;;23.10;15.85;;;6.70;99.90;;;;;;5048339;28;20025;-48
2023/02/20 04:49:22;;;;;;;23.85;16.10;;;6.60;99.90;;;;;;5048593;28;20633;-48
2023/02/20 04:51:48;;;;;;;23.30;16.13;;;6.60;99.90;;;;;;5047554;28;20035;-48
2023/02/20 04:54:14;;;;;;;27.77;16.77;;;6.60;99.90;;;;;;5048516;28;20384;-48
2023/02/20 04:56:39;;;;;;;26.10;18.08;;;6.60;99.90;;;;;;5048645;28;20025;-47
2023/02/20 04:59:05;;;;;;;27.45;17.98;;;6.60;99.90;;;;;;5048799;28;20110;-47
2023/02/20 05:01:30;;;;;;;26.38;18.30;;;6.60;99.90;;;;;;5048697;28;20033;-47
2023/02/20 05:03:56;;;;;;;27.55;19.05;;;6.60;99.90;;;;;;5047185;28;20031;-42
2023/02/20 05:06:22;;;;;;;31.23;18.75;;;6.60;99.90;;;;;;5046962;28;20033;-43
2023/02/20 05:08:47;;;;;;;31.13;17.73;;;6.60;99.90;;;;;;5046847;28;20031;-42
2023/02/20 05:11:13;;;;;;;27.83;18.50;;;6.60;99.90;;;;;;5049359;28;20021;-42
2023/02/20 05:13:38;;;;;;;25.80;17.42;;;6.70;99.90;;;;;;5049272;28;20079;-42
2023/02/20 05:16:04;;;;;;;31.67;17.80;;;6.70;99.90;;;;;;5049763;28;20017;-42
2023/02/20 05:18:30;;;;;;;28.98;18.75;;;6.80;99.90;;;;;;5049583;28;20396;-43
2023/02/20 05:23:40;;;;;;;26.38;17.02;;;6.80;99.90;;;;;;5050913;28;20063;-41
2023/02/20 05:26:11;;;;;;;26.42;16.92;;;6.80;99.90;;;;;;5053624;28;20021;-42
2023/02/20 05:28:38;;;;;;;25.70;15.90;;;6.70;99.90;;;;;;5053462;28;20025;-43
2023/02/20 05:31:04;;;;;;;23.70;16.10;;;6.80;99.90;;;;;;5053209;28;20029;-43
2023/02/20 05:33:30;;;;;;;27.20;16.92;;;6.80;99.90;;;;;;5068422;28;20029;-43
2023/02/20 05:35:55;;;;;;;23.83;15.57;;;6.80;99.90;;;;;;5053001;28;20384;-43
2023/02/20 05:38:21;;;;;;;27.40;17.67;;;6.70;99.90;;;;;;5053184;28;20025;-42
2023/02/20 05:40:46;;;;;;;28.95;17.00;;;6.80;99.90;;;;;;5053446;28;20025;-43
2023/02/20 05:43:12;;;;;;;24.65;15.15;;;6.80;99.90;;;;;;5052774;28;20029;-42
2023/02/20 05:45:37;;;;;;;27.40;16.02;;;6.80;99.90;;;;;;5049560;28;20480;-43
2023/02/20 05:48:03;;;;;;;26.40;15.80;;;6.80;99.90;;;;;;5050548;28;20025;-41
2023/02/20 05:50:28;;;;;;;25.13;16.15;;;6.80;99.90;;;;;;5066148;28;20059;-42
2023/02/20 05:52:54;;;;;;;28.75;16.27;;;6.80;99.90;;;;;;5050395;28;20613;-43
2023/02/20 05:55:20;;;;;;;24.17;15.48;;;6.80;99.90;;;;;;5050538;28;20432;-42
2023/02/20 05:57:45;;;;;;;23.17;15.43;;;6.80;99.90;;;;;;5051032;28;20407;-43
2023/02/20 06:00:11;;;;;;;24.40;15.80;;;6.90;99.90;;;;;;5051108;28;20084;-42
2023/02/20 06:02:36;;;;;;;24.63;14.43;;;6.80;99.90;;;;;;5050581;28;20096;-42
2023/02/20 06:05:04;;;;;;;25.00;15.02;;;6.80;99.90;;;;;;5050775;28;20016;-42
2023/02/20 06:07:30;;;;;;;25.30;15.48;;;6.90;99.90;;;;;;5048073;28;20377;-43
2023/02/20 06:09:56;;;;;;;28.08;15.52;;;6.90;99.90;;;;;;5052074;28;20099;-41
2023/02/20 06:12:21;;;;;;;22.10;14.48;;;6.90;99.90;;;;;;5052015;28;20025;-41
2023/02/20 06:14:47;;;;;;;24.17;14.07;;;7.00;99.90;;;;;;5052278;28;20017;-41
2023/02/20 06:17:12;;;;;;;25.40;14.70;;;7.00;99.90;;;;;;5049850;28;20108;-41
2023/02/20 06:19:38;;;;;;;23.27;13.18;;;7.00;99.90;;;;;;5052902;28;20656;-51
2023/02/20 06:22:03;;;;;;;23.38;13.52;;;7.00;99.90;;;;;;5051032;28;20025;-42
2023/02/20 06:24:29;;;;;;;19.88;12.70;;;7.00;99.90;;;;;;5050862;28;20686;-43
2023/02/20 06:26:55;;;;;;;26.20;13.43;;;6.90;99.90;;;;;;5055462;28;20476;-42
2023/02/20 06:29:20;;;;;;;22.60;14.02;;;7.00;99.90;;;;;;5051468;28;20025;-42
2023/02/20 06:31:46;;;;;;;23.38;14.23;;;7.00;99.90;;;;;;5051137;28;20017;-42
2023/02/20 06:34:13;;;;;;;22.10;13.25;;;7.00;99.90;;;;;;5051433;28;20037;-43
2023/02/20 06:36:40;;;;;;;23.45;13.85;;;7.00;99.90;;;;;;5050403;28;20021;-42
2023/02/20 06:39:07;;;;;;;21.77;13.98;;;7.00;99.90;;;;;;5050886;28;20103;-41
2023/02/20 06:41:33;;;;;;;22.25;12.27;;;7.00;99.90;;;;;;5050771;28;20443;-41
2023/02/20 06:43:59;;;;;;;23.42;12.95;;;7.00;99.90;;;;;;5051181;28;20095;-41
2023/02/20 06:46:24;;;;;;;22.95;13.10;;;7.10;99.90;;;;;;5050806;28;20043;-42
2023/02/20 06:48:53;;;;;;;23.63;12.82;;;7.20;99.90;;;;;;5048752;28;20048;-41
2023/02/20 06:51:21;;;;;;;19.05;11.82;;;7.20;99.90;;;;;;5063400;28;20025;-41
2023/02/20 06:53:46;;;;;;;22.67;11.82;;;7.30;99.90;;;;;;5048848;28;20032;-47
2023/02/20 06:56:19;;;;;;;22.27;12.05;;;7.40;99.90;;;;;;5047973;28;20024;-48
2023/02/20 06:58:49;;;;;;;21.73;11.43;;;7.40;99.90;;;;;;5048825;28;20052;-48
2023/02/20 07:01:16;;;;;;;23.27;12.18;;;7.40;99.90;;;;;;5049769;28;20033;-49
2023/02/20 07:03:43;;;;;;;19.83;10.30;;;7.50;99.90;;;;;;5049699;28;20503;-48
2023/02/20 07:06:11;;;;;;;20.75;10.85;;;7.50;99.90;;;;;;5049779;28;20098;-48
2023/02/20 07:08:37;;;;;;;19.40;11.32;;;7.50;99.90;;;;;;5049880;28;20032;-49
2023/02/20 07:11:03;;;;;;;17.75;10.75;;;7.50;99.90;;;;;;5064584;28;20021;-48
2023/02/20 07:13:29;;;;;;;17.52;10.05;;;7.50;99.90;;;;;;5050321;28;20067;-47
2023/02/20 07:15:54;;;;;;;23.45;11.13;;;7.50;99.90;;;;;;5051210;28;20055;-47
2023/02/20 07:18:22;;;;;;;19.98;10.25;;;7.50;99.90;;;;;;5050410;28;20029;-48
2023/02/20 07:20:50;;;;;;;19.02;9.75;;;7.60;99.90;;;;;;5050824;28;20048;-50
2023/02/20 07:23:16;;;;;;;19.45;10.73;;;7.60;99.90;;;;;;5050796;28;20028;-50
2023/02/20 07:25:41;;;;;;;17.05;9.75;;;7.50;99.90;;;;;;5052729;28;20116;-47
2023/02/20 07:28:07;;;;;;;17.45;9.65;;;7.60;99.90;;;;;;5050185;28;20442;-50
2023/02/20 07:30:33;;;;;;;18.38;9.65;;;7.50;99.90;;;;;;5051361;28;20029;-49
2023/02/20 07:32:59;;;;;;;26.08;9.68;;;7.60;99.90;;;;;;5050652;28;20024;-49
2023/02/20 07:35:24;;;;;;;19.30;10.05;;;7.60;99.90;;;;;;5050584;28;20070;-49
2023/02/20 07:37:50;;;;;;;18.55;9.18;;;7.70;99.90;;;;;;5050669;28;20032;-48
2023/02/20 07:40:15;;;;;;;18.75;9.45;;;7.80;99.90;;;;;;5050930;28;20114;-49
2023/02/20 07:42:41;;;;;;;17.40;8.70;;;7.80;99.90;;;;;;5050487;28;20029;-50
2023/02/20 07:45:08;;;;;;;16.25;8.48;;;7.80;99.90;;;;;;5050836;28;20033;-48
2023/02/20 07:47:34;;;;;;;14.73;8.60;;;7.80;99.90;;;;;;5050052;28;20060;-48
2023/02/20 07:50:00;;;;;;;17.77;8.50;;;7.80;99.90;;;;;;5050515;28;20045;-48
2023/02/20 07:52:25;;;;;;;14.90;8.57;;;7.80;99.90;;;;;;5049786;28;20021;-48
2023/02/20 07:54:51;;;;;;;16.48;7.75;;;7.90;99.90;;;;;;5065832;28;20025;-41
2023/02/20 07:57:16;;;;;;;16.33;9.13;;;8.00;99.90;;;;;;5050169;28;20056;-41
2023/02/20 07:59:42;;;;;;;18.58;8.40;;;8.00;99.90;;;;;;5050353;28;20368;-39
2023/02/20 08:02:07;;;;;;;16.30;7.63;;;8.10;99.90;;;;;;5049933;28;20028;-40
2023/02/20 08:04:33;;;;;;;15.93;7.15;;;8.10;99.90;;;;;;5050370;28;20027;-39
2023/02/20 08:06:58;;;;;;;19.83;8.60;;;8.30;99.90;;;;;;5046325;28;20021;-39
2023/02/20 08:09:24;;;;;;;21.02;7.68;;;8.30;99.90;;;;;;5049990;28;20044;-39
2023/02/20 08:11:49;;;;;;;17.05;7.63;;;8.40;99.90;;;;;;5049784;28;20052;-39
2023/02/20 08:14:15;;;;;;;22.35;7.45;;;8.40;99.90;;;;;;5050397;28;20071;-39
2023/02/20 08:16:41;;;;;;;17.98;6.57;;;8.50;99.90;;;;;;5049988;28;20029;-39
2023/02/20 08:19:06;;;;;;;15.20;7.63;;;8.50;99.90;;;;;;5050118;28;20035;-39
2023/02/20 08:21:32;;;;;;;12.70;6.75;;;8.60;99.90;;;;;;5049974;28;20031;-39
2023/02/20 08:23:57;;;;;;;14.90;6.32;;;8.60;99.90;;;;;;5049963;28;20029;-39
2023/02/20 08:26:23;;;;;;;16.10;7.05;;;8.70;99.90;;;;;;5050261;28;20036;-39
2023/02/20 08:28:50;;;;;;;13.57;7.55;;;8.70;99.90;;;;;;5049723;28;20025;-39
2023/02/20 08:31:17;;;;;;;11.18;6.55;;;8.70;99.90;;;;;;5048609;28;20017;-40
2023/02/20 08:33:43;;;;;;;9.48;5.78;;;8.80;99.90;;;;;;5048919;28;20524;-40
2023/02/20 08:36:08;;;;;;;15.55;7.38;;;8.90;99.90;;;;;;5049259;28;20096;-40
2023/02/20 08:38:36;;;;;;;10.05;6.13;;;9.00;99.90;;;;;;5049058;28;20017;-40
2023/02/20 08:41:06;;;;;;;15.70;6.80;;;9.00;99.90;;;;;;5049821;28;20576;-40
2023/02/20 08:43:32;;;;;;;13.45;5.90;;;9.10;99.90;;;;;;5049805;28;20087;-39
2023/02/20 08:45:58;;;;;;;14.23;6.50;;;9.20;99.90;;;;;;5050358;28;20074;-40
2023/02/20 08:48:24;;;;;;;11.43;6.47;;;9.10;99.90;;;;;;5049726;28;20117;-39
2023/02/20 08:50:49;;;;;;;12.50;6.50;;;9.20;99.90;;;;;;5050032;28;20067;-40
2023/02/20 08:53:15;;;;;;;14.95;6.38;;;9.30;99.90;;;;;;5049509;28;20017;-40
2023/02/20 08:55:41;;;;;;;17.23;6.82;;;9.40;99.90;;;;;;5065448;28;20021;-39
2023/02/20 08:58:07;;;;;;;14.55;6.22;;;9.50;99.90;;;;;;5050204;28;20103;-40
2023/02/20 09:00:32;;;;;;;12.82;6.57;;;9.50;99.90;;;;;;5053939;28;20037;-40
2023/02/20 09:02:58;;;;;;;13.15;6.93;;;9.70;99.90;;;;;;5052653;28;20025;-40
2023/02/20 09:05:24;;;;;;;13.75;7.00;;;9.70;99.90;;;;;;5054005;28;20027;-40
2023/02/20 09:07:50;;;;;;;12.43;6.80;;;9.60;99.90;;;;;;5053622;28;20028;-39
2023/02/20 09:10:20;;;;;;;13.65;7.68;;;9.50;99.90;;;;;;5053384;28;20032;-40
2023/02/20 09:12:46;;;;;;;12.50;6.82;;;9.50;99.90;;;;;;5052057;28;20534;-40
2023/02/20 09:15:16;;;;;;;13.15;7.43;;;9.50;99.90;;;;;;5053431;28;20120;-40
2023/02/20 09:17:43;;;;;;;12.57;8.60;;;9.50;99.90;;;;;;5053514;28;20041;-40
2023/02/20 09:20:09;;;;;;;17.67;7.95;;;9.40;99.90;;;;;;5052467;28;20036;-40
2023/02/20 09:22:35;;;;;;;18.20;8.75;;;9.40;99.90;;;;;;5052576;28;20028;-40
2023/02/20 09:25:01;;;;;;;16.60;9.90;;;9.40;99.90;;;;;;5068852;28;20060;-40
2023/02/20 09:27:27;;;;;;;18.02;10.75;;;9.40;99.90;;;;;;5052239;28;20071;-40
2023/02/20 09:29:52;;;;;;;14.77;9.25;;;9.30;99.90;;;;;;5053630;28;20025;-41
2023/02/20 09:32:18;;;;;;;17.50;10.00;;;9.30;99.90;;;;;;5052475;28;20017;-39
2023/02/20 09:34:44;;;;;;;20.77;9.70;;;9.40;99.90;;;;;;5052969;28;20063;-40
2023/02/20 09:37:10;;;;;;;17.50;11.05;;;9.40;99.90;;;;;;5052756;28;20096;-40
2023/02/20 09:39:35;;;;;;;17.73;10.85;;;9.40;99.90;;;;;;5053064;28;20135;-39
2023/02/20 09:42:16;;;;;;;17.23;11.10;;;9.40;99.90;;;;;;5052708;28;20452;-46
2023/02/20 09:45:08;;;;;;;17.02;10.93;;;9.50;99.90;;;;;;5052871;28;20024;-46
2023/02/20 09:47:43;;;;;;;22.52;12.70;;;9.60;99.90;;;;;;5052968;28;20032;-46
2023/02/20 09:50:15;;;;;;;26.27;13.18;;;9.70;99.90;;;;;;5051780;28;20501;-46
2023/02/20 09:52:45;;;;;;;20.05;13.25;;;9.70;99.90;;;;;;5052597;28;20029;-50
2023/02/20 09:55:16;;;;;;;21.75;14.75;;;9.60;99.90;;;;;;5052756;28;20071;-46
2023/02/20 09:57:45;;;;;;;22.13;13.95;;;9.70;99.90;;;;;;5068384;28;20033;-40
2023/02/20 10:00:23;;;;;;;22.15;14.35;;;9.40;99.90;;;;;;5053010;28;20037;-40
2023/02/20 10:03:01;;;;;;;28.08;16.05;;;9.40;99.90;;;;;;5067741;28;20063;-40
2023/02/20 10:05:28;;;;;;;25.55;15.10;;;9.40;99.90;;;;;;5052547;28;20021;-40
2023/02/20 10:07:54;;;;;;;24.45;16.67;;;9.30;99.90;;;;;;5051859;28;20053;-40
2023/02/20 10:10:21;;;;;;;29.10;18.05;;;9.20;99.90;;;;;;5051530;28;20059;-40
2023/02/20 10:13:06;;;;;;;27.23;17.77;;;9.20;99.90;;;;;;5052240;28;20120;-40
2023/02/20 10:16:10;;;;;;;30.55;17.40;;;9.10;99.90;;;;;;5052432;28;20391;-39
2023/02/20 10:18:57;;;;;;;31.80;19.02;;;9.00;99.90;;;;;;5052352;28;20024;-39
2023/02/20 10:21:49;;;;;;;28.73;16.92;;;8.90;99.90;;;;;;5052339;28;20033;-40
2023/02/20 10:24:28;;;;;;;29.20;18.73;;;8.90;99.90;;;;;;5052473;28;20410;-40
2023/02/20 10:27:15;;;;;;;34.60;20.25;;;8.80;99.90;;;;;;5067607;28;20652;-40
2023/02/20 10:29:43;;;;;;;33.58;20.20;;;8.70;99.90;;;;;;5052241;28;20136;-41
2023/02/20 10:32:15;;;;;;;35.20;19.70;;;8.80;99.90;;;;;;5067199;28;20045;-39
2023/02/20 10:34:53;;;;;;;30.67;20.08;;;8.80;99.90;;;;;;5051288;28;20464;-40
2023/02/20 10:37:22;;;;;;;28.98;18.50;;;8.70;99.90;;;;;;5051556;28;20029;-39
2023/02/20 10:39:59;;;;;;;34.50;20.17;;;8.80;99.90;;;;;;5051604;28;20017;-40
2023/02/20 10:42:37;;;;;;;31.92;20.35;;;8.80;99.90;;;;;;5050342;28;20046;-40
2023/02/20 10:45:18;;;;;;;37.85;21.30;;;8.70;99.90;;;;;;5049808;28;20109;-39
2023/02/20 10:48:04;;;;;;;33.72;21.02;;;8.70;99.90;;;;;;5050014;28;20367;-39
2023/02/20 10:51:05;;;;;;;33.28;20.77;;;8.70;99.90;;;;;;5050612;28;20025;-39
2023/02/20 10:53:53;;;;;;;35.08;21.23;;;8.70;99.90;;;;;;5029054;28;20037;-40
2023/02/20 10:56:37;;;;;;;37.38;21.95;;;8.70;99.90;;;;;;5050616;28;20045;-40
2023/02/20 10:59:08;;;;;;;35.10;22.27;;;8.70;99.90;;;;;;5049756;28;20049;-39
2023/02/20 11:01:36;;;;;;;35.00;22.02;;;8.70;99.90;;;;;;5065859;28;20017;-40
2023/02/20 11:04:14;;;;;;;41.20;24.50;;;8.70;99.90;;;;;;5051102;28;20025;-40
2023/02/20 11:06:52;;;;;;;37.22;22.85;;;8.70;99.90;;;;;;5048604;28;20376;-39
2023/02/20 11:09:18;;;;;;;39.97;23.00;;;8.60;99.90;;;;;;5064312;28;20642;-39
2023/02/20 11:11:46;;;;;;;39.80;23.58;;;8.70;99.90;;;;;;5050974;28;20104;-39
2023/02/20 11:14:14;;;;;;;41.72;22.92;;;8.70;99.90;;;;;;5051310;28;20496;-40
2023/02/20 11:17:06;;;;;;;44.05;24.20;;;8.70;99.90;;;;;;5051224;28;20029;-39
2023/02/20 11:19:47;;;;;;;38.03;22.77;;;8.80;99.90;;;;;;5051064;28;20029;-46
2023/02/20 11:22:14;;;;;;;40.47;24.88;;;8.80;99.90;;;;;;5050401;28;20024;-46
2023/02/20 11:24:42;;;;;;;41.30;24.40;;;8.80;99.90;;;;;;5051493;28;20421;-49
2023/02/20 11:27:24;;;;;;;42.03;25.08;;;8.80;99.90;;;;;;5050706;28;20469;-47
2023/02/20 11:30:02;;;;;;;45.45;23.88;;;8.80;99.90;;;;;;5049277;28;20033;-46
2023/02/20 11:32:36;;;;;;;38.92;24.55;;;8.80;99.90;;;;;;5050408;28;20021;-47
2023/02/20 11:35:22;;;;;;;39.03;23.23;;;8.80;99.90;;;;;;5048631;28;20021;-46
2023/02/20 11:38:10;;;;;;;39.40;25.30;;;8.80;99.90;;;;;;5047418;28;20090;-46
2023/02/20 11:40:36;;;;;;;47.95;25.38;;;8.70;99.90;;;;;;5043270;28;20179;-46
2023/02/20 11:43:32;;;;;;;47.42;25.73;;;8.70;99.90;;;;;;5050622;28;20108;-49
2023/02/20 11:46:22;;;;;;;42.72;23.40;;;8.80;99.90;;;;;;5042821;28;20120;-49
2023/02/20 11:49:04;;;;;;;;;;;8.80;99.90;;;;;;5031254;28;20033;-40
2023/02/20 11:51:41;;;;;;;45.35;25.80;;;8.70;99.90;;;;;;5038307;28;20317;-46
2023/02/20 11:54:12;;;;;;;49.05;26.13;;;8.80;99.90;;;;;;5050607;28;20055;-46
2023/02/20 11:56:38;;;;;;;44.80;22.77;;;8.70;99.90;;;;;;5050651;28;20120;-47
2023/02/20 11:59:27;;;;;;;36.20;24.08;;;8.70;99.90;;;;;;5050177;28;20104;-47
2023/02/20 12:01:53;;;;;;;44.63;23.60;;;8.70;99.90;;;;;;5050087;28;20438;-40
2023/02/20 12:04:21;;;;;;;54.67;31.88;;;8.70;99.90;;;;;;5050436;28;20100;-40
2023/02/20 12:06:47;;;;;;;43.30;24.77;;;8.70;99.90;;;;;;5050092;28;20404;-47
2023/02/20 12:09:24;;;;;;;44.15;25.55;;;8.70;99.90;;;;;;5050459;28;20116;-49
2023/02/20 12:11:53;;;;;;;48.40;26.52;;;8.70;99.90;;;;;;5050130;28;20037;-47
2023/02/20 12:14:19;;;;;;;44.55;26.00;;;8.70;99.90;;;;;;5050100;28;20020;-48
2023/02/20 12:16:47;;;;;;;41.60;24.90;;;8.70;99.90;;;;;;5050504;28;20017;-48
2023/02/20 12:19:31;;;;;;;47.00;25.00;;;8.70;99.90;;;;;;5050369;28;20033;-47
2023/02/20 12:22:13;;;;;;;42.03;24.05;;;8.80;99.90;;;;;;5049860;28;20028;-47
2023/02/20 12:25:03;;;;;;;40.97;23.52;;;8.70;99.90;;;;;;5049755;28;20013;-47
2023/02/20 12:27:51;;;;;;;44.78;24.88;;;8.80;99.90;;;;;;5042920;28;20024;-47
2023/02/20 12:30:51;;;;;;;39.47;21.23;;;8.80;99.90;;;;;;5050323;28;20435;-48
2023/02/20 12:33:49;;;;;;;41.35;23.08;;;8.90;99.90;;;;;;5064468;28;20587;-48
2023/02/20 12:36:38;;;;;;;37.92;21.75;;;8.80;99.90;;;;;;5049787;28;20028;-47
2023/02/20 12:39:23;;;;;;;39.80;21.73;;;8.90;99.90;;;;;;5049047;28;20025;-40
2023/02/20 12:42:05;;;;;;;42.28;21.00;;;8.90;99.90;;;;;;5049607;28;20036;-40
2023/02/20 12:44:49;;;;;;;41.45;22.27;;;9.00;99.90;;;;;;5050056;28;20052;-41
2023/02/20 12:47:31;;;;;;;47.58;21.77;;;8.90;99.90;;;;;;5050025;28;20554;-40
2023/02/20 12:50:22;;;;;;;39.40;23.38;;;8.90;99.90;;;;;;5048630;28;20698;-41
2023/02/20 12:53:16;;;;;;;37.20;21.92;;;9.00;99.90;;;;;;5048768;28;20132;-40
2023/02/20 12:56:08;;;;;;;33.97;20.73;;;9.00;99.90;;;;;;5050229;28;20032;-41
2023/02/20 12:58:58;;;;;;;42.30;20.25;;;8.90;99.90;;;;;;5050158;28;20021;-41
2023/02/20 13:01:23;;;;;;;38.42;22.15;;;8.90;99.90;;;;;;5049909;28;20572;-40
2023/02/20 13:04:04;;;;;;;38.55;22.23;;;8.90;99.90;;;;;;5049156;28;20151;-41
2023/02/20 13:06:48;;;;;;;42.58;22.00;;;8.90;99.90;;;;;;5064845;28;20471;-41
2023/02/20 13:09:24;;;;;;;40.15;21.70;;;8.90;99.90;;;;;;5049734;28;20083;-40
2023/02/20 13:11:55;;;;;;;42.25;22.58;;;8.90;99.90;;;;;;5049292;28;20115;-40
2023/02/20 13:14:29;;;;;;;37.08;20.27;;;8.90;99.90;;;;;;5049616;28;20017;-40
2023/02/20 13:17:17;;;;;;;39.75;22.25;;;8.80;99.90;;;;;;5049780;28;20017;-40